Adnan Menderes International Airport


Codes: LTBJ/ADB
Name: Adnan Menderes International Airport
City: ?zmir
Country: Turkey
Elevation: 412 ft.
Website:
Wikipedia:

Photos at Adnan Menderes International Airport


   Photos courtesy of SpottingLog. You can add your own sightings and photos by signing up for a free trial today.



TC-SEY, 26-Sep-2017
© Igor PISSAREV

TC-JGH, 26-Sep-2017
© Igor PISSAREV

TC-SEK, 26-Sep-2017
© Igor PISSAREV

TC-SEM, 26-Sep-2017
© Igor PISSAREV

TC-SOG, 26-Sep-2017
© Igor PISSAREV

69-032, 26-Sep-2017
© Igor PISSAREV

13031, 26-Sep-2017
© Igor PISSAREV

14012, 26-Sep-2017
© Igor PISSAREV

TC-THF, 21-Aug-1999
© Tony Smith


Weather at Adnan Menderes International Airport


Time (UTC)DescriptionTempratureWindCloud coverageVisibilityPressureHumidity
21-Jun-2024 12:00Clear Sky38°C13 mph, NE0%10000m1008hPa18%
21-Jun-2024 15:00Clear Sky38°C22 mph, NE0%10000m1006hPa15%
21-Jun-2024 18:00Clear Sky29°C7 mph, N0%10000m1006hPa36%
21-Jun-2024 21:00Clear Sky24°C4 mph, N0%10000m1007hPa56%
22-Jun-2024 00:00Clear Sky22°C4 mph, N0%10000m1007hPa66%
22-Jun-2024 03:00Clear Sky20°C4 mph, N0%10000m1006hPa79%
22-Jun-2024 06:00Clear Sky29°C7 mph, N0%10000m1006hPa44%
22-Jun-2024 09:00Clear Sky36°C11 mph, NE0%10000m1005hPa23%
22-Jun-2024 12:00Clear Sky39°C9 mph, NE0%10000m1003hPa18%
22-Jun-2024 15:00Clear Sky38°C7 mph, N0%10000m1002hPa18%
22-Jun-2024 18:00Clear Sky29°C4 mph, N0%10000m1003hPa29%
22-Jun-2024 21:00Clear Sky25°C2 mph, N0%10000m1004hPa36%
23-Jun-2024 00:00Clear Sky23°C4 mph, N0%10000m1004hPa44%
23-Jun-2024 03:00Clear Sky21°C2 mph, N0%10000m1004hPa49%
23-Jun-2024 06:00Clear Sky30°C4 mph, N0%10000m1004hPa31%
23-Jun-2024 09:00Clear Sky37°C9 mph, NW0%10000m1003hPa19%
23-Jun-2024 12:00Clear Sky40°C11 mph, NW0%10000m1002hPa16%
23-Jun-2024 15:00Clear Sky38°C11 mph, NW0%10000m1002hPa18%
23-Jun-2024 18:00Clear Sky29°C2 mph, W0%10000m1003hPa32%
23-Jun-2024 21:00Clear Sky26°C2 mph, SE0%10000m1005hPa41%
24-Jun-2024 00:00Clear Sky24°C2 mph, E0%10000m1005hPa46%
24-Jun-2024 03:00Clear Sky23°C2 mph, NE0%10000m1005hPa48%
24-Jun-2024 06:00Clear Sky31°C4 mph, N0%10000m1005hPa31%
24-Jun-2024 09:00Clear Sky38°C7 mph, NW0%10000m1005hPa18%
24-Jun-2024 12:00Clear Sky40°C9 mph, NW0%10000m1005hPa16%
24-Jun-2024 15:00Clear Sky38°C9 mph, NW0%10000m1005hPa18%
24-Jun-2024 18:00Clear Sky28°C4 mph, W0%10000m1006hPa40%
24-Jun-2024 21:00Clear Sky25°C2 mph, S0%10000m1007hPa52%
25-Jun-2024 00:00Clear Sky23°C0 mph, N0%10000m1007hPa56%
25-Jun-2024 03:00Clear Sky22°C2 mph, N0%10000m1007hPa59%
25-Jun-2024 06:00Clear Sky31°C4 mph, N0%10000m1007hPa37%
25-Jun-2024 09:00Clear Sky38°C9 mph, NW0%10000m1006hPa24%
25-Jun-2024 12:00Clear Sky39°C13 mph, NW0%10000m1005hPa20%
25-Jun-2024 15:00Clear Sky38°C16 mph, NW0%10000m1005hPa21%
25-Jun-2024 18:00Clear Sky30°C7 mph, NW0%10000m1006hPa32%
25-Jun-2024 21:00Clear Sky25°C2 mph, N0%10000m1007hPa49%
26-Jun-2024 00:00Clear Sky23°C4 mph, N0%10000m1006hPa56%
26-Jun-2024 03:00Clear Sky22°C4 mph, N0%10000m1006hPa60%
26-Jun-2024 06:00Clear Sky30°C7 mph, N0%10000m1007hPa37%
26-Jun-2024 09:00Clear Sky38°C11 mph, N0%10000m1006hPa19%